Time;durP1;ratioP1;P1;durP2;ratioP2;P2;SDS_P1;SDS_P2;PMS_P1;PMS_P2;Temp;Humidity;BMP_temperature;BMP_pressure;BME280_temperature;BME280_humidity;BME280_pressure;Samples;Min_cycle;Max_cycle;Signal;HPM_P1;HPM_P2
2023/09/18 00:00:57;;;;;;;44.70;22.45;;;;;;;17.90;100.00;100622.72;6071161;19;20335;-73
2023/09/18 00:03:03;;;;;;;45.20;22.65;;;;;;;17.89;100.00;100621.03;6075004;19;20022;-73
2023/09/18 00:05:08;;;;;;;44.25;23.48;;;;;;;17.89;100.00;100621.03;6078213;19;20116;-72
2023/09/18 00:07:11;;;;;;;47.95;23.55;;;;;;;17.94;100.00;100608.25;6074274;19;20106;-73
2023/09/18 00:09:18;;;;;;;43.30;22.60;;;;;;;17.98;100.00;100612.38;6074328;19;20659;-72
2023/09/18 00:11:23;;;;;;;43.50;23.17;;;;;;;17.99;100.00;100602.59;6079047;19;20039;-72
2023/09/18 00:13:32;;;;;;;44.80;22.80;;;;;;;18.01;100.00;100605.13;6075724;19;20021;-73
2023/09/18 00:15:38;;;;;;;43.55;23.08;;;;;;;18.05;100.00;100599.47;6072762;19;20541;-73
2023/09/18 00:17:43;;;;;;;41.78;22.90;;;;;;;18.05;100.00;100601.28;6076082;19;20389;-73
2023/09/18 00:19:48;;;;;;;46.65;23.48;;;;;;;18.08;100.00;100598.38;6077213;19;20006;-73
2023/09/18 00:21:55;;;;;;;51.22;24.85;;;;;;;18.11;100.00;100595.47;6078519;19;20516;-72
2023/09/18 00:24:01;;;;;;;49.13;24.35;;;;;;;18.18;100.00;100583.41;6076061;19;20025;-74
2023/09/18 00:26:07;;;;;;;43.03;22.15;;;;;;;18.16;100.00;100582.69;6074275;19;20196;-74
2023/09/18 00:28:12;;;;;;;43.80;23.50;;;;;;;18.15;100.00;100573.03;6074818;19;20055;-74
2023/09/18 00:30:20;;;;;;;39.33;22.35;;;;;;;18.17;100.00;100582.59;6077143;19;20014;-73
2023/09/18 00:32:27;;;;;;;43.40;23.92;;;;;;;18.16;100.00;100569.38;6072859;19;20036;-73
2023/09/18 00:34:34;;;;;;;42.13;21.80;;;;;;;18.12;100.00;100567.94;6073909;19;20048;-73
2023/09/18 00:36:39;;;;;;;41.75;21.77;;;;;;;18.15;100.00;100567.72;6069176;19;20065;-73
2023/09/18 00:38:49;;;;;;;50.20;23.02;;;;;;;18.11;100.00;100556.44;6066808;19;20552;-73
2023/09/18 00:40:55;;;;;;;37.60;21.80;;;;;;;18.08;100.00;100539.88;6070202;19;20740;-73
2023/09/18 00:43:00;;;;;;;42.60;22.38;;;;;;;18.08;100.00;100534.56;6066786;19;20013;-73
2023/09/18 00:45:07;;;;;;;41.90;22.23;;;;;;;18.10;100.00;100537.97;6068842;19;20014;-72
2023/09/18 00:47:18;;;;;;;39.50;22.38;;;;;;;18.08;100.00;100529.25;6066951;19;20286;-74
2023/09/18 00:49:24;;;;;;;40.30;21.75;;;;;;;18.04;100.00;100511.84;6067939;19;20484;-74
2023/09/18 00:51:30;;;;;;;37.72;21.90;;;;;;;18.04;100.00;100498.56;6066575;19;20539;-72
2023/09/18 00:53:35;;;;;;;36.72;20.35;;;;;;;17.98;100.00;100487.44;6071346;19;20472;-73
2023/09/18 00:55:42;;;;;;;39.60;20.73;;;;;;;17.97;100.00;100474.25;6071649;19;20007;-76
2023/09/18 00:57:48;;;;;;;39.78;19.90;;;;;;;17.97;100.00;100461.78;6072937;19;20449;-73
2023/09/18 00:59:54;;;;;;;39.15;21.38;;;;;;;18.01;100.00;100469.50;6068143;19;20235;-72
2023/09/18 01:01:57;;;;;;;40.28;21.13;;;;;;;17.99;100.00;100470.50;6071002;19;20007;-72
2023/09/18 01:04:05;;;;;;;40.05;21.63;;;;;;;17.98;100.00;100482.09;6065881;19;20203;-72
2023/09/18 01:06:10;;;;;;;39.42;22.48;;;;;;;17.99;100.00;100481.13;6068637;19;20374;-72
2023/09/18 01:08:16;;;;;;;41.47;21.85;;;;;;;18.04;100.00;100469.31;6074439;19;20352;-74
2023/09/18 01:10:24;;;;;;;41.78;22.20;;;;;;;18.07;100.00;100471.72;6071560;19;20078;-73
2023/09/18 01:12:36;;;;;;;42.03;21.23;;;;;;;18.03;100.00;100468.44;6067704;19;20006;-73
2023/09/18 01:14:50;;;;;;;42.35;21.38;;;;;;;18.05;100.00;100460.34;6073245;19;20007;-75
2023/09/18 01:17:01;;;;;;;40.75;22.58;;;;;;;18.01;100.00;100464.19;6076204;19;20495;-73
2023/09/18 01:19:12;;;;;;;40.80;21.30;;;;;;;18.04;100.00;100470.16;6072160;19;20082;-73
2023/09/18 01:21:17;;;;;;;38.88;22.40;;;;;;;18.02;100.00;100473.88;6065126;19;20034;-73
2023/09/18 01:23:25;;;;;;;36.58;20.83;;;;;;;18.02;100.00;100477.38;6060948;19;20386;-73
2023/09/18 01:25:30;;;;;;;43.40;21.83;;;;;;;18.04;100.00;100474.63;6062610;19;20454;-73
2023/09/18 01:27:35;;;;;;;45.70;23.60;;;;;;;18.02;100.00;100476.53;6043746;19;20010;-73
2023/09/18 01:29:40;;;;;;;40.13;22.60;;;;;;;18.06;100.00;100472.66;6063890;19;20015;-74
2023/09/18 01:31:48;;;;;;;37.00;21.83;;;;;;;18.10;100.00;100477.63;6063650;19;20268;-73
2023/09/18 01:33:54;;;;;;;42.75;21.27;;;;;;;18.03;100.00;100478.22;6071795;19;20612;-73
2023/09/18 01:36:00;;;;;;;39.00;21.08;;;;;;;18.11;100.00;100470.50;6073208;19;20384;-73
2023/09/18 01:38:10;;;;;;;42.63;22.05;;;;;;;18.08;100.00;100470.75;6062483;19;20444;-74
2023/09/18 01:40:17;;;;;;;39.35;22.73;;;;;;;18.12;100.00;100466.91;6073541;19;20384;-71
2023/09/18 01:42:23;;;;;;;42.30;22.48;;;;;;;18.12;100.00;100464.22;6059648;19;20014;-73
2023/09/18 01:44:32;;;;;;;37.28;18.77;;;;;;;18.08;100.00;100463.59;6062601;19;20039;-74
2023/09/18 01:46:38;;;;;;;37.28;20.98;;;;;;;18.16;100.00;100460.34;6067910;19;20203;-73
2023/09/18 01:48:48;;;;;;;36.40;21.13;;;;;;;18.18;100.00;100464.59;6067985;19;20013;-72
2023/09/18 01:50:56;;;;;;;39.40;20.60;;;;;;;18.23;100.00;100464.22;6062566;19;20010;-72
2023/09/18 01:53:02;;;;;;;37.15;19.73;;;;;;;18.19;100.00;100468.97;6062943;19;20011;-73
2023/09/18 01:55:08;;;;;;;32.58;19.70;;;;;;;18.17;100.00;100465.56;6063546;19;20014;-73
2023/09/18 01:57:16;;;;;;;33.90;19.85;;;;;;;18.15;100.00;100462.16;6066399;19;20010;-73
2023/09/18 01:59:22;;;;;;;37.05;19.30;;;;;;;18.15;100.00;100471.97;6068848;19;20184;-73
2023/09/18 02:01:29;;;;;;;39.75;20.75;;;;;;;18.16;100.00;100473.66;6065822;19;20021;-73
2023/09/18 02:03:35;;;;;;;36.90;20.00;;;;;;;18.15;100.00;100478.13;6066189;19;20010;-73
2023/09/18 02:06:00;;;;;;;38.97;21.45;;;;;;;18.18;100.00;100488.53;6066548;19;20277;-73
2023/09/18 02:08:06;;;;;;;38.70;20.73;;;;;;;18.21;100.00;100479.44;6061717;19;20090;-73
2023/09/18 02:10:12;;;;;;;37.20;20.20;;;;;;;18.22;100.00;100486.47;6076264;19;20226;-74
2023/09/18 02:12:21;;;;;;;34.17;18.92;;;;;;;18.22;100.00;100489.16;6060055;19;20010;-73
2023/09/18 02:14:32;;;;;;;37.60;20.23;;;;;;;18.21;100.00;100479.44;6060012;19;20344;-73
2023/09/18 02:16:40;;;;;;;37.55;20.08;;;;;;;18.25;100.00;100483.59;6064952;19;20010;-73
2023/09/18 02:18:48;;;;;;;35.30;19.50;;;;;;;18.26;100.00;100479.94;6070067;19;20043;-73
2023/09/18 02:20:54;;;;;;;30.13;18.70;;;;;;;18.22;100.00;100470.53;6073037;19;20329;-72
2023/09/18 02:23:00;;;;;;;36.13;18.88;;;;;;;18.25;100.00;100466.78;6069496;19;20316;-73
2023/09/18 02:25:05;;;;;;;30.27;16.73;;;;;;;18.21;100.00;100472.31;6078002;19;20531;-73
2023/09/18 02:27:13;;;;;;;34.83;18.65;;;;;;;18.19;100.00;100473.41;6074347;19;20603;-72
2023/09/18 02:29:24;;;;;;;29.15;17.42;;;;;;;18.24;100.00;100454.44;6069834;19;20472;-72
2023/09/18 02:31:29;;;;;;;29.33;16.23;;;;;;;18.26;100.00;100433.88;6060567;19;20558;-72
2023/09/18 02:33:35;;;;;;;29.73;16.25;;;;;;;18.26;100.00;100440.03;6065953;19;20003;-72
2023/09/18 02:35:40;;;;;;;30.85;16.77;;;;;;;18.29;100.00;100439.78;6066303;19;20010;-73
2023/09/18 02:37:46;;;;;;;33.30;17.17;;;;;;;18.29;100.00;100421.19;6063503;19;20022;-73
2023/09/18 02:39:53;;;;;;;29.25;16.40;;;;;;;18.30;100.00;100420.22;6058826;19;20038;-73
2023/09/18 02:42:02;;;;;;;28.52;16.73;;;;;;;18.27;100.00;100411.63;6059259;19;20011;-72
2023/09/18 02:44:08;;;;;;;26.55;15.88;;;;;;;18.29;100.00;100402.56;6061385;19;20527;-73
2023/09/18 02:46:17;;;;;;;27.13;16.50;;;;;;;18.27;100.00;100396.50;6059522;19;20359;-73
2023/09/18 02:48:20;;;;;;;26.67;15.40;;;;;;;18.30;100.00;100390.97;6070245;19;20252;-73
2023/09/18 02:50:26;;;;;;;30.40;15.93;;;;;;;18.33;100.00;100377.41;6066178;19;20317;-72
2023/09/18 02:52:31;;;;;;;26.52;15.02;;;;;;;18.30;100.00;100358.19;6064861;19;20040;-74
2023/09/18 02:54:36;;;;;;;27.08;15.82;;;;;;;18.30;100.00;100350.19;6066067;19;20014;-73
2023/09/18 02:56:41;;;;;;;22.48;13.82;;;;;;;18.28;100.00;100344.19;6072876;19;20003;-73
2023/09/18 02:58:46;;;;;;;27.10;15.52;;;;;;;18.23;100.00;100335.72;6068271;19;20203;-72
2023/09/18 03:00:50;;;;;;;28.10;14.10;;;;;;;18.23;100.00;100341.03;6048174;19;20015;-73
2023/09/18 03:02:59;;;;;;;25.83;14.40;;;;;;;18.19;100.00;100337.75;6064352;19;20538;-73
2023/09/18 03:05:04;;;;;;;26.42;14.43;;;;;;;18.20;100.00;100334.16;6066156;19;20007;-73
2023/09/18 03:07:11;;;;;;;22.23;14.40;;;;;;;18.18;100.00;100347.56;6066197;19;20017;-73
2023/09/18 03:09:16;;;;;;;26.70;16.17;;;;;;;18.16;100.00;100346.84;6070182;19;20507;-72
2023/09/18 03:11:26;;;;;;;26.90;15.10;;;;;;;18.16;100.00;100336.19;6067373;19;20155;-73
2023/09/18 03:13:33;;;;;;;29.35;14.10;;;;;;;18.12;100.00;100333.94;6067136;19;20407;-72
2023/09/18 03:15:40;;;;;;;24.02;13.95;;;;;;;18.10;100.00;100333.19;6081514;19;20011;-75
2023/09/18 03:17:48;;;;;;;27.00;13.35;;;;;;;18.07;100.00;100333.44;6062074;19;20388;-73
2023/09/18 03:19:58;;;;;;;25.60;14.70;;;;;;;18.05;100.00;100336.22;6069721;19;20010;-75
2023/09/18 03:22:04;;;;;;;23.98;14.43;;;;;;;18.03;100.00;100337.31;6062468;19;20015;-74
2023/09/18 03:24:10;;;;;;;26.75;15.60;;;;;;;18.08;100.00;100353.75;6063623;19;20017;-74
2023/09/18 03:26:17;;;;;;;28.35;15.55;;;;;;;18.24;100.00;100378.13;6062290;19;20051;-73
2023/09/18 03:28:23;;;;;;;27.75;15.80;;;;;;;18.29;100.00;100391.06;6063290;19;20019;-72
2023/09/18 03:30:31;;;;;;;32.10;16.58;;;;;;;18.40;100.00;100383.94;6063937;19;20026;-73
2023/09/18 03:32:36;;;;;;;27.02;14.85;;;;;;;18.47;100.00;100380.78;6068559;19;20011;-77
2023/09/18 03:34:48;;;;;;;34.05;15.25;;;;;;;18.55;100.00;100388.97;6067022;19;20684;-78
2023/09/18 03:36:59;;;;;;;26.17;15.02;;;;;;;18.61;100.00;100384.00;6062643;19;20281;-75
2023/09/18 03:39:05;;;;;;;26.75;15.25;;;;;;;18.54;100.00;100385.47;6059958;19;20469;-74
2023/09/18 03:41:11;;;;;;;22.80;13.60;;;;;;;18.57;100.00;100374.59;6061395;19;20010;-73
2023/09/18 03:43:19;;;;;;;27.05;14.80;;;;;;;18.59;100.00;100385.13;6057737;19;20507;-74
2023/09/18 03:45:24;;;;;;;28.20;14.82;;;;;;;18.61;100.00;100391.97;6059132;19;20007;-75
2023/09/18 03:47:30;;;;;;;28.75;14.43;;;;;;;18.67;100.00;100384.47;6053032;19;20490;-74
2023/09/18 03:49:38;;;;;;;24.40;14.43;;;;;;;18.63;100.00;100381.22;6056157;19;20082;-75
2023/09/18 03:51:44;;;;;;;29.98;14.32;;;;;;;18.64;100.00;100378.44;6051547;19;20035;-77
2023/09/18 03:54:07;;;;;;;26.67;13.65;;;;;;;18.62;100.00;100355.59;6059062;19;20126;-77
2023/09/18 03:56:15;;;;;;;19.00;10.25;;;;;;;18.58;100.00;100354.13;6068128;19;20043;-78
2023/09/18 03:58:22;;;;;;;18.77;10.20;;;;;;;18.60;100.00;100376.16;6061899;19;20376;-75
2023/09/18 04:00:28;;;;;;;21.45;10.82;;;;;;;18.62;100.00;100390.19;6063707;19;20551;-73
2023/09/18 04:02:35;;;;;;;21.17;9.93;;;;;;;18.58;100.00;100370.09;6064029;19;20392;-75
2023/09/18 04:04:40;;;;;;;20.67;10.20;;;;;;;18.53;100.00;100327.06;6065439;19;20476;-77
2023/09/18 04:06:47;;;;;;;20.20;9.55;;;;;;;18.55;100.00;100314.47;6062381;19;20011;-77
2023/09/18 04:08:53;;;;;;;16.83;8.95;;;;;;;18.53;100.00;100297.78;6057867;19;20035;-73
2023/09/18 04:11:04;;;;;;;14.90;8.13;;;;;;;18.49;100.00;100289.22;6059438;19;20022;-74
2023/09/18 04:13:09;;;;;;;16.70;9.35;;;;;;;18.48;100.00;100298.16;6059963;19;20378;-74
2023/09/18 04:15:18;;;;;;;16.60;9.00;;;;;;;18.46;100.00;100293.94;6063866;19;20363;-75
2023/09/18 04:17:24;;;;;;;15.93;7.90;;;;;;;18.42;100.00;100298.66;6061940;19;20043;-74
2023/09/18 04:19:30;;;;;;;15.43;8.32;;;;;;;18.42;100.00;100286.22;6060340;19;20420;-73
2023/09/18 04:21:32;;;;;;;17.40;9.07;;;;;;;18.40;100.00;100284.63;6058968;19;20057;-73
2023/09/18 04:23:38;;;;;;;16.83;8.98;;;;;;;18.40;100.00;100276.66;6064416;19;20010;-73
2023/09/18 04:25:41;;;;;;;17.88;10.10;;;;;;;18.38;100.00;100279.47;6068488;19;20020;-73
2023/09/18 04:27:50;;;;;;;18.27;9.57;;;;;;;18.39;100.00;100282.97;6066923;19;20451;-73
2023/09/18 04:29:57;;;;;;;18.45;10.13;;;;;;;18.35;100.00;100282.38;6066945;19;20022;-73
2023/09/18 04:32:07;;;;;;;17.13;8.80;;;;;;;18.35;100.00;100285.03;6069852;19;20011;-73
2023/09/18 04:34:15;;;;;;;17.77;9.48;;;;;;;18.35;100.00;100301.00;6071177;19;20019;-73
2023/09/18 04:36:17;;;;;;;19.65;9.40;;;;;;;18.35;100.00;100295.69;6066296;19;20446;-73
2023/09/18 04:38:24;;;;;;;17.45;9.07;;;;;;;18.40;100.00;100293.50;6073499;19;20022;-74
2023/09/18 04:40:31;;;;;;;16.08;9.07;;;;;;;18.37;100.00;100299.03;6071943;19;20386;-74
2023/09/18 04:42:37;;;;;;;21.85;10.77;;;;;;;18.36;100.00;100297.34;6067610;19;20286;-74
2023/09/18 04:44:47;;;;;;;17.88;9.35;;;;;;;18.37;100.00;100299.03;6068410;19;20007;-74
2023/09/18 04:46:54;;;;;;;16.85;9.45;;;;;;;18.36;100.00;100297.34;6074219;19;20660;-73
2023/09/18 04:48:59;;;;;;;18.45;9.55;;;;;;;18.38;100.00;100300.75;6067150;19;20421;-73
2023/09/18 04:51:06;;;;;;;19.45;9.38;;;;;;;18.34;100.00;100304.63;6074794;19;20337;-74
2023/09/18 04:53:11;;;;;;;17.85;9.50;;;;;;;18.37;100.00;100306.19;6066618;19;20016;-73
2023/09/18 04:55:16;;;;;;;17.40;9.57;;;;;;;18.38;100.00;100308.72;6069579;19;20429;-74
2023/09/18 04:57:22;;;;;;;28.10;14.13;;;;;;;18.42;100.00;100315.47;6068325;19;20006;-73
2023/09/18 04:59:27;;;;;;;30.90;16.63;;;;;;;18.39;100.00;100286.47;6066474;19;20053;-73
2023/09/18 05:01:35;;;;;;;25.67;12.63;;;;;;;18.38;100.00;100282.13;6057438;19;20031;-73
2023/09/18 05:03:37;;;;;;;22.60;11.23;;;;;;;18.36;100.00;100273.41;6067239;19;20326;-74
2023/09/18 05:05:49;;;;;;;18.75;10.32;;;;;;;18.40;100.00;100268.69;6069190;19;20264;-73
2023/09/18 05:07:52;;;;;;;20.50;9.70;;;;;;;18.35;100.00;100266.41;6068707;19;20103;-75
2023/09/18 05:09:59;;;;;;;19.23;9.48;;;;;;;18.34;100.00;100261.22;6071210;19;20043;-73
2023/09/18 05:12:04;;;;;;;17.92;9.32;;;;;;;18.33;100.00;100259.53;6067623;19;20682;-74
2023/09/18 05:14:10;;;;;;;18.77;10.52;;;;;;;18.33;100.00;100260.38;6065918;19;20021;-74
2023/09/18 05:16:16;;;;;;;20.50;10.43;;;;;;;18.33;100.00;100255.06;6069133;19;20042;-73
2023/09/18 05:18:24;;;;;;;20.60;10.52;;;;;;;18.35;100.00;100261.09;6071293;19;20164;-72
2023/09/18 05:20:30;;;;;;;19.13;11.23;;;;;;;18.36;100.00;100260.13;6051469;19;20416;-73
2023/09/18 05:22:36;;;;;;;19.15;11.27;;;;;;;18.39;100.00;100262.53;6059035;19;20416;-73
2023/09/18 05:24:41;;;;;;;21.38;11.95;;;;;;;18.42;100.00;100256.94;6057794;19;20043;-73
2023/09/18 05:26:46;;;;;;;22.95;12.25;;;;;;;18.42;100.00;100262.25;6059620;19;20014;-73
2023/09/18 05:28:51;;;;;;;20.13;11.88;;;;;;;18.45;100.00;100255.84;6058636;19;20503;-73
2023/09/18 05:31:00;;;;;;;21.02;11.45;;;;;;;18.45;100.00;100255.84;6063170;19;20632;-74
2023/09/18 05:33:07;;;;;;;21.25;11.93;;;;;;;18.47;100.00;100253.06;6061744;19;20015;-73
2023/09/18 05:35:13;;;;;;;30.85;13.23;;;;;;;18.49;100.00;100235.16;6058403;19;20019;-74
2023/09/18 05:37:18;;;;;;;23.00;12.45;;;;;;;18.45;100.00;100242.53;6060691;19;20019;-73
2023/09/18 05:39:24;;;;;;;23.85;13.43;;;;;;;18.50;100.00;100236.84;6069302;19;20074;-73
2023/09/18 05:41:29;;;;;;;22.58;13.02;;;;;;;18.49;100.00;100237.81;6070305;19;20404;-73
2023/09/18 05:43:35;;;;;;;25.33;13.32;;;;;;;18.48;100.00;100228.13;6066794;19;20112;-73
2023/09/18 05:45:40;;;;;;;22.27;12.82;;;;;;;18.48;100.00;100234.28;6078049;19;20299;-74
2023/09/18 05:47:46;;;;;;;25.83;12.70;;;;;;;18.48;100.00;100238.78;6075452;19;20574;-73
2023/09/18 05:49:51;;;;;;;23.60;12.80;;;;;;;18.48;100.00;100234.28;6074159;19;20065;-72
2023/09/18 05:52:02;;;;;;;22.45;12.52;;;;;;;18.48;100.00;100233.47;6071059;19;20232;-73
2023/09/18 05:54:08;;;;;;;25.17;13.45;;;;;;;18.45;100.00;100244.38;6074715;19;20022;-74
2023/09/18 05:56:14;;;;;;;22.00;13.43;;;;;;;18.44;100.00;100243.53;6076726;19;20010;-73
2023/09/18 05:58:26;;;;;;;22.80;12.32;;;;;;;18.44;100.00;100248.84;6070452;19;20011;-73
2023/09/18 06:00:32;;;;;;;24.35;13.77;;;;;;;18.43;100.00;100256.00;6071663;19;20133;-73
2023/09/18 06:02:37;;;;;;;23.27;12.82;;;;;;;18.40;100.00;100252.72;6070578;19;20285;-74
2023/09/18 06:04:43;;;;;;;26.40;12.52;;;;;;;18.42;100.00;100264.09;6069804;19;20527;-74
2023/09/18 06:06:48;;;;;;;23.90;12.23;;;;;;;18.47;100.00;100269.03;6071322;19;20078;-73
2023/09/18 06:08:56;;;;;;;21.42;11.95;;;;;;;18.49;100.00;100267.09;6068507;19;20014;-74
2023/09/18 06:11:01;;;;;;;22.65;13.40;;;;;;;18.48;100.00;100268.06;6070938;19;20095;-74
2023/09/18 06:13:07;;;;;;;22.50;12.00;;;;;;;18.48;100.00;100266.22;6070522;19;20046;-74
2023/09/18 06:15:12;;;;;;;23.02;12.85;;;;;;;18.50;100.00;100280.25;6076698;19;20490;-73
2023/09/18 06:17:18;;;;;;;21.42;11.90;;;;;;;18.50;100.00;100271.44;6078977;19;20258;-73
2023/09/18 06:19:24;;;;;;;21.95;12.13;;;;;;;18.49;100.00;100278.56;6072962;19;20134;-73
2023/09/18 06:21:29;;;;;;;22.75;12.05;;;;;;;18.50;100.00;100271.44;6071957;19;20015;-74
2023/09/18 06:23:33;;;;;;;22.58;12.18;;;;;;;18.48;100.00;100278.69;6070518;19;20015;-75
2023/09/18 06:25:40;;;;;;;19.80;11.77;;;;;;;18.47;100.00;100272.53;6066922;19;20351;-73
2023/09/18 06:27:43;;;;;;;21.13;11.48;;;;;;;18.47;100.00;100266.38;6067375;19;20255;-74
2023/09/18 06:29:48;;;;;;;20.52;10.23;;;;;;;18.40;100.00;100266.88;6069657;19;20516;-73
2023/09/18 06:31:53;;;;;;;21.67;11.43;;;;;;;18.38;100.00;100266.16;6066873;19;20102;-73
2023/09/18 06:33:58;;;;;;;22.20;10.30;;;;;;;18.36;100.00;100257.47;6068887;19;20413;-73
2023/09/18 06:36:03;;;;;;;16.70;9.68;;;;;;;18.37;100.00;100264.47;6066207;19;20014;-74
2023/09/18 06:38:11;;;;;;;18.45;9.30;;;;;;;18.39;100.00;100259.84;6064793;19;20022;-73
2023/09/18 06:40:18;;;;;;;19.20;9.52;;;;;;;18.37;100.00;100251.16;6062146;19;20015;-74
2023/09/18 06:42:31;;;;;;;17.33;9.07;;;;;;;18.35;100.00;100247.81;6068993;19;20010;-73
2023/09/18 06:44:36;;;;;;;16.77;8.68;;;;;;;18.36;100.00;100246.81;6066668;19;20007;-75
2023/09/18 06:46:42;;;;;;;16.48;8.57;;;;;;;18.36;100.00;100246.81;6067499;19;20021;-75
2023/09/18 06:48:49;;;;;;;14.18;8.65;;;;;;;18.38;100.00;100255.53;6068255;19;20539;-72
2023/09/18 06:50:55;;;;;;;13.00;7.55;;;;;;;18.37;100.00;100259.13;6067350;19;20010;-73
2023/09/18 06:53:00;;;;;;;13.40;7.47;;;;;;;18.33;100.00;100255.06;6062065;19;20036;-74
2023/09/18 06:55:06;;;;;;;14.30;6.75;;;;;;;18.38;100.00;100255.53;6062882;19;20299;-72
2023/09/18 06:57:11;;;;;;;11.55;5.65;;;;;;;18.36;100.00;100261.94;6060623;19;20035;-72
2023/09/18 06:59:18;;;;;;;11.13;5.07;;;;;;;18.34;100.00;100270.03;6067670;19;20018;-72
2023/09/18 07:01:25;;;;;;;11.70;5.53;;;;;;;18.30;100.00;100262.41;6061813;19;20193;-73
2023/09/18 07:03:32;;;;;;;10.75;5.47;;;;;;;18.24;100.00;100266.44;6062265;19;20093;-74
2023/09/18 07:05:37;;;;;;;11.68;5.85;;;;;;;18.22;100.00;100263.06;6064009;19;20054;-74
2023/09/18 07:07:42;;;;;;;12.00;5.53;;;;;;;18.23;100.00;100271.91;6063049;19;20524;-72
2023/09/18 07:09:47;;;;;;;11.82;5.60;;;;;;;18.25;100.00;100272.63;6063215;19;20560;-73
2023/09/18 07:12:08;;;;;;;13.60;6.72;;;;;;;18.25;100.00;100275.28;6062726;19;20653;-73
2023/09/18 07:14:13;;;;;;;14.30;7.53;;;;;;;18.24;100.00;100271.75;6060179;19;20355;-73
2023/09/18 07:16:21;;;;;;;12.98;7.10;;;;;;;18.28;100.00;100267.88;6065796;19;20050;-73
2023/09/18 07:18:26;;;;;;;13.50;7.25;;;;;;;18.40;100.00;100266.88;6065987;19;20014;-73
2023/09/18 07:20:32;;;;;;;12.07;6.80;;;;;;;18.39;100.00;100270.50;6065010;19;20307;-74
2023/09/18 07:22:35;;;;;;;16.52;6.38;;;;;;;18.36;100.00;100278.75;6062520;19;20240;-73
2023/09/18 07:24:40;;;;;;;;;;;;;;;18.35;100.00;100277.06;6067875;19;20005;-72
2023/09/18 07:26:48;;;;;;;11.98;5.70;;;;;;;18.34;100.00;100286.00;6050061;19;19919;-70
2023/09/18 07:28:53;;;;;;;11.15;6.32;;;;;;;18.37;100.00;100288.41;6068239;19;20010;-70
2023/09/18 07:31:08;;;;;;;10.65;5.40;;;;;;;18.43;100.00;100298.56;6066860;19;20522;-71
2023/09/18 07:33:19;;;;;;;13.63;5.65;;;;;;;18.47;100.00;100285.84;6068716;19;20015;-70
2023/09/18 07:35:25;;;;;;;11.52;5.85;;;;;;;18.54;100.00;100291.50;6071579;19;19999;-70
2023/09/18 07:37:30;;;;;;;11.15;5.07;;;;;;;18.65;100.00;100292.28;6067475;19;20011;-70
2023/09/18 07:39:36;;;;;;;12.70;5.47;;;;;;;18.65;100.00;100294.97;6064879;19;20325;-70
2023/09/18 07:41:40;;;;;;;10.23;5.05;;;;;;;18.64;100.00;100303.06;6073414;19;20400;-70
2023/09/18 07:43:46;;;;;;;10.43;4.68;;;;;;;18.63;100.00;100304.88;6072594;19;20080;-71
2023/09/18 07:45:52;;;;;;;10.98;4.53;;;;;;;18.77;100.00;100309.09;6073034;19;20515;-73
2023/09/18 07:47:58;;;;;;;11.13;5.47;;;;;;;18.72;100.00;100305.09;6073339;19;20651;-71
2023/09/18 07:50:06;;;;;;;10.50;5.00;;;;;;;18.99;100.00;100304.63;6072383;19;20189;-71
2023/09/18 07:52:11;;;;;;;7.80;4.15;;;;;;;19.06;100.00;100303.13;6072984;19;20097;-72
2023/09/18 07:54:17;;;;;;;8.70;4.35;;;;;;;19.15;100.00;100313.00;6073707;19;20021;-72
2023/09/18 07:56:22;;;;;;;10.80;5.18;;;;;;;19.24;100.00;100314.88;6073238;19;20094;-71
2023/09/18 07:58:27;;;;;;;10.32;5.13;;;;;;;19.39;100.00;100312.72;6077809;19;20018;-71
2023/09/18 08:00:33;;;;;;;8.88;4.30;;;;;;;19.60;100.00;100304.72;6082351;19;20272;-71
2023/09/18 08:02:38;;;;;;;8.95;3.92;;;;;;;19.79;100.00;100316.47;6083912;19;20018;-70
2023/09/18 08:04:47;;;;;;;8.90;4.28;;;;;;;20.09;100.00;100316.44;6083571;19;20018;-70
2023/09/18 08:06:54;;;;;;;8.82;4.68;;;;;;;20.00;100.00;100324.41;6080896;19;20018;-70
2023/09/18 08:08:59;;;;;;;9.38;4.05;;;;;;;20.38;100.00;100331.66;6083369;19;20438;-70
2023/09/18 08:11:11;;;;;;;14.57;4.75;;;;;;;20.33;100.00;100332.06;6081095;19;20010;-71
2023/09/18 08:13:19;;;;;;;9.05;4.55;;;;;;;20.43;100.00;100332.06;6079678;19;20082;-71
2023/09/18 08:15:25;;;;;;;9.45;4.07;;;;;;;20.52;100.00;100331.25;6080041;19;20021;-71
2023/09/18 08:17:30;;;;;;;10.25;4.60;;;;;;;20.46;100.00;100336.28;6078618;19;20299;-70
2023/09/18 08:19:37;;;;;;;10.80;4.70;;;;;;;19.93;100.00;100334.75;6079360;19;20352;-70
2023/09/18 08:21:44;;;;;;;9.85;4.63;;;;;;;20.03;100.00;100335.63;6080995;19;20562;-71
2023/09/18 08:23:52;;;;;;;9.65;4.97;;;;;;;19.96;100.00;100339.84;6076298;19;20531;-70
2023/09/18 08:26:05;;;;;;;12.18;4.75;;;;;;;19.84;100.00;100332.91;6073095;19;20010;-70
2023/09/18 08:28:10;;;;;;;10.75;5.00;;;;;;;19.70;100.00;100336.78;6074564;19;20248;-70
2023/09/18 08:30:20;;;;;;;12.75;5.80;;;;;;;19.76;100.00;100338.91;6073297;19;20015;-71
2023/09/18 08:32:25;;;;;;;9.57;4.63;;;;;;;19.76;100.00;100344.22;6072459;19;20509;-71
2023/09/18 08:34:31;;;;;;;12.07;5.20;;;;;;;19.73;100.00;100339.16;6072783;19;20327;-70
2023/09/18 08:36:36;;;;;;;12.73;5.10;;;;;;;19.69;100.00;100343.91;6077117;19;20601;-71
2023/09/18 08:38:41;;;;;;;10.02;4.97;;;;;;;19.66;100.00;100335.31;6072457;19;20035;-71
2023/09/18 08:40:56;;;;;;;9.80;4.28;;;;;;;19.53;100.00;100339.03;6072245;19;20325;-71
2023/09/18 08:43:03;;;;;;;7.90;4.85;;;;;;;19.50;100.00;100341.13;6068021;19;20298;-69
2023/09/18 08:45:12;;;;;;;6.30;4.03;;;;;;;19.41;100.00;100344.59;6078297;19;20007;-70
2023/09/18 08:47:17;;;;;;;6.97;4.80;;;;;;;19.28;100.00;100340.28;6069907;19;20014;-72
2023/09/18 08:49:22;;;;;;;8.75;4.28;;;;;;;19.24;100.00;100344.19;6075215;19;20612;-70
2023/09/18 08:51:28;;;;;;;7.25;3.70;;;;;;;19.19;100.00;100351.72;6078015;19;20011;-70
2023/09/18 08:53:34;;;;;;;6.80;3.60;;;;;;;19.18;100.00;100351.88;6070802;19;20003;-71
2023/09/18 08:55:39;;;;;;;7.55;3.85;;;;;;;19.13;100.00;100359.41;6080791;19;20018;-73
2023/09/18 08:57:53;;;;;;;7.13;4.03;;;;;;;19.11;100.00;100353.34;6079883;19;20007;-70
2023/09/18 09:00:06;;;;;;;7.43;4.30;;;;;;;19.15;100.00;100360.13;6082912;19;20017;-72
2023/09/18 09:02:13;;;;;;;7.63;4.60;;;;;;;19.18;100.00;100351.88;6082483;19;20018;-71
2023/09/18 09:04:19;;;;;;;8.90;4.25;;;;;;;19.25;100.00;100350.38;6077712;19;20015;-72
2023/09/18 09:06:24;;;;;;;9.50;4.30;;;;;;;19.33;100.00;100373.72;6077482;19;20073;-70
2023/09/18 09:08:32;;;;;;;7.97;4.63;;;;;;;19.30;100.00;100375.66;6079706;19;20015;-71
2023/09/18 09:10:38;;;;;;;7.80;4.90;;;;;;;19.27;100.00;100381.25;6080427;19;20336;-71
2023/09/18 09:12:58;;;;;;;7.30;4.75;;;;;;;19.25;100.00;100377.03;6076228;19;20466;-72
2023/09/18 09:15:07;;;;;;;8.95;4.63;;;;;;;19.13;100.00;100370.88;6076964;19;20019;-69
2023/09/18 09:17:13;;;;;;;8.48;4.93;;;;;;;19.13;100.00;100380.69;6079045;19;20098;-70
2023/09/18 09:19:19;;;;;;;7.85;4.43;;;;;;;19.25;100.00;100380.53;6080174;19;20272;-72
2023/09/18 09:21:24;;;;;;;8.20;4.43;;;;;;;19.25;100.00;100377.03;6078597;19;20026;-70
2023/09/18 09:23:31;;;;;;;7.68;4.47;;;;;;;19.39;100.00;100374.03;6078404;19;20519;-70
2023/09/18 09:25:36;;;;;;;9.48;4.68;;;;;;;19.35;100.00;100372.56;6075985;19;20581;-71
2023/09/18 09:27:47;;;;;;;8.80;4.63;;;;;;;19.42;100.00;100378.25;6077164;19;20216;-70
2023/09/18 09:30:04;;;;;;;6.22;4.25;;;;;;;19.38;100.00;100374.13;6073527;19;20438;-71
2023/09/18 09:32:17;;;;;;;10.10;4.60;;;;;;;19.50;100.00;100367.78;6076113;19;20010;-71
2023/09/18 09:34:29;;;;;;;8.75;5.00;;;;;;;19.41;100.00;100382.72;6077267;19;20026;-70